Time;durP1;ratioP1;P1;durP2;ratioP2;P2;SDS_P1;SDS_P2;PMS_P1;PMS_P2;Temp;Humidity;BMP_temperature;BMP_pressure;BME280_temperature;BME280_humidity;BME280_pressure;Samples;Min_cycle;Max_cycle;Signal;HPM_P1;HPM_P2
2022/06/07 00:00:33;;;;;;;32.47;17.00;;;12.20;99.90;;;;;;5020510;28;20045;-66
2022/06/07 00:02:59;;;;;;;27.48;15.65;;;12.00;99.90;;;;;;5059407;28;20060;-68
2022/06/07 00:05:25;;;;;;;30.58;16.05;;;12.20;99.90;;;;;;5063963;28;20033;-68
2022/06/07 00:07:53;;;;;;;31.38;16.10;;;12.20;99.90;;;;;;5040976;28;20040;-71
2022/06/07 00:10:18;;;;;;;31.70;15.75;;;12.10;99.90;;;;;;5066968;28;20037;-68
2022/06/07 00:12:44;;;;;;;33.17;17.33;;;12.10;99.90;;;;;;5035280;28;20116;-70
2022/06/07 00:15:10;;;;;;;31.45;16.48;;;12.10;99.90;;;;;;5034121;28;20044;-69
2022/06/07 00:17:36;;;;;;;29.52;16.73;;;12.10;99.90;;;;;;5033184;28;20040;-73
2022/06/07 00:20:03;;;;;;;30.73;16.63;;;12.20;99.90;;;;;;5049177;28;20075;-70
2022/06/07 00:22:32;;;;;;;28.77;16.45;;;12.10;99.90;;;;;;5034283;28;20083;-68
2022/06/07 00:24:58;;;;;;;30.00;16.65;;;12.20;99.90;;;;;;5037873;28;20094;-69
2022/06/07 00:27:24;;;;;;;28.63;15.85;;;12.10;99.90;;;;;;5067154;28;20044;-70
2022/06/07 00:29:50;;;;;;;31.48;16.70;;;12.30;99.90;;;;;;5030319;28;20037;-72
2022/06/07 00:32:19;;;;;;;31.55;16.25;;;12.30;99.90;;;;;;5020486;28;20044;-71
2022/06/07 00:34:44;;;;;;;31.02;16.23;;;12.20;99.90;;;;;;5045202;28;20086;-70
2022/06/07 00:37:10;;;;;;;31.48;17.27;;;12.30;99.90;;;;;;5068061;28;20568;-70
2022/06/07 00:39:36;;;;;;;29.52;17.40;;;12.20;99.90;;;;;;5027170;28;20513;-71
2022/06/07 00:42:01;;;;;;;32.38;17.10;;;12.20;99.90;;;;;;5062986;28;20064;-70
2022/06/07 00:44:34;;;;;;;29.83;16.42;;;12.30;99.90;;;;;;5064089;28;20037;-70
2022/06/07 00:47:06;;;;;;;29.83;17.25;;;12.30;99.90;;;;;;5031650;28;20044;-72
2022/06/07 00:50:02;;;;;;;30.50;17.70;;;12.30;99.90;;;;;;5031492;28;20495;-68
2022/06/07 00:52:30;;;;;;;33.63;17.58;;;12.30;99.90;;;;;;5032372;28;20040;-72
2022/06/07 00:54:57;;;;;;;29.38;16.67;;;12.20;99.90;;;;;;5029928;28;20060;-68
2022/06/07 00:57:23;;;;;;;31.35;17.00;;;12.20;99.90;;;;;;5062343;28;20120;-70
2022/06/07 00:59:51;;;;;;;31.77;17.33;;;12.20;99.90;;;;;;5034541;28;20048;-71
2022/06/07 01:02:17;;;;;;;33.05;17.65;;;12.40;99.90;;;;;;5051169;28;20377;-69
2022/06/07 01:04:43;;;;;;;29.02;17.20;;;12.20;99.90;;;;;;5029678;28;20029;-69
2022/06/07 01:12:37;;;;;;;26.75;16.77;;;12.20;99.90;;;;;;5057803;28;20052;-71
2022/06/07 01:15:03;;;;;;;30.25;16.33;;;12.40;99.90;;;;;;5026717;28;20392;-74
2022/06/07 01:17:29;;;;;;;28.13;16.42;;;12.40;99.90;;;;;;5009470;28;20045;-71
2022/06/07 01:19:54;;;;;;;26.10;15.88;;;12.40;99.90;;;;;;5054541;28;20044;-75
2022/06/07 01:22:20;;;;;;;31.02;16.33;;;12.40;99.90;;;;;;5030933;28;20041;-73
2022/06/07 01:24:47;;;;;;;32.92;16.52;;;12.30;99.90;;;;;;5060781;28;20029;-72
2022/06/07 01:27:13;;;;;;;28.40;16.00;;;12.50;99.90;;;;;;5012554;28;20523;-70
2022/06/07 01:29:42;;;;;;;29.27;16.00;;;12.30;99.90;;;;;;5023882;28;20533;-72
2022/06/07 01:32:08;;;;;;;28.00;15.80;;;12.30;99.90;;;;;;5050031;28;20047;-72
2022/06/07 01:34:34;;;;;;;29.48;15.38;;;12.50;99.90;;;;;;5061567;28;20047;-73
2022/06/07 01:37:00;;;;;;;29.38;15.85;;;12.40;99.90;;;;;;5052197;28;20693;-73
2022/06/07 01:42:12;;;;;;;27.13;15.85;;;12.50;99.90;;;;;;5065686;28;20099;-71
2022/06/07 01:44:41;;;;;;;26.77;15.15;;;12.50;99.90;;;;;;5014313;28;20108;-72
2022/06/07 01:47:10;;;;;;;27.98;15.57;;;12.50;99.90;;;;;;5033908;28;20471;-66
2022/06/07 01:49:36;;;;;;;31.65;15.82;;;12.40;99.90;;;;;;5017361;28;20033;-72
2022/06/07 01:52:06;;;;;;;28.73;15.30;;;12.50;99.90;;;;;;5041921;28;20071;-70
2022/06/07 01:54:31;;;;;;;29.45;14.85;;;12.50;99.90;;;;;;5030856;28;20450;-72
2022/06/07 01:56:57;;;;;;;30.67;13.93;;;12.50;99.90;;;;;;5031390;28;20284;-73
2022/06/07 01:59:23;;;;;;;26.00;14.80;;;12.40;99.90;;;;;;5033498;28;20128;-73
2022/06/07 02:01:49;;;;;;;25.55;14.20;;;12.40;99.90;;;;;;5030316;28;20041;-71
2022/06/07 02:04:15;;;;;;;27.45;13.95;;;12.40;99.90;;;;;;5036108;28;20139;-73
2022/06/07 02:06:41;;;;;;;29.65;14.65;;;12.40;99.90;;;;;;5032200;28;20539;-74
2022/06/07 02:09:08;;;;;;;27.33;13.55;;;12.40;99.90;;;;;;5064642;28;20160;-72
2022/06/07 02:11:36;;;;;;;27.45;14.50;;;12.40;99.90;;;;;;5063901;28;20052;-74
2022/06/07 02:14:02;;;;;;;25.50;14.18;;;12.50;99.90;;;;;;5030170;28;20044;-71
2022/06/07 02:16:28;;;;;;;27.55;13.77;;;12.40;99.90;;;;;;5050746;28;20044;-71
2022/06/07 02:18:53;;;;;;;28.95;14.38;;;12.50;99.90;;;;;;5034397;28;20049;-73
2022/06/07 02:21:22;;;;;;;28.10;14.55;;;12.40;99.90;;;;;;5029066;28;20045;-70
2022/06/07 02:23:49;;;;;;;30.02;14.70;;;12.40;99.90;;;;;;5027062;28;20372;-73
2022/06/07 02:26:21;;;;;;;26.55;14.43;;;12.50;99.90;;;;;;5035720;28;20063;-67
2022/06/07 02:28:52;;;;;;;25.92;13.90;;;12.40;99.90;;;;;;5033458;28;20041;-74
2022/06/07 02:31:18;;;;;;;26.65;13.43;;;12.40;99.90;;;;;;5040398;28;20037;-71
2022/06/07 02:33:45;;;;;;;25.73;14.13;;;12.40;99.90;;;;;;5033193;28;20168;-70
2022/06/07 02:36:11;;;;;;;30.40;13.75;;;12.50;99.90;;;;;;5030018;28;20667;-74
2022/06/07 02:38:38;;;;;;;24.73;13.55;;;12.50;99.90;;;;;;5042622;28;20033;-73
2022/06/07 02:41:07;;;;;;;25.88;13.48;;;12.40;99.90;;;;;;5057223;28;20037;-70
2022/06/07 02:43:33;;;;;;;24.52;13.15;;;12.50;99.90;;;;;;5029358;28;20307;-68
2022/06/07 02:45:58;;;;;;;25.75;13.25;;;12.60;99.90;;;;;;5020746;28;20065;-74
2022/06/07 02:48:24;;;;;;;23.60;12.50;;;12.50;99.90;;;;;;5059639;28;20046;-72
2022/06/07 02:50:52;;;;;;;26.55;13.43;;;12.50;99.90;;;;;;5034751;28;20403;-72
2022/06/07 02:53:18;;;;;;;26.27;13.25;;;12.40;99.90;;;;;;5035279;28;20072;-74
2022/06/07 02:55:44;;;;;;;26.00;13.02;;;12.50;99.90;;;;;;5064591;28;20054;-72
2022/06/07 02:58:10;;;;;;;22.55;12.93;;;12.40;99.90;;;;;;5026328;28;20132;-74
2022/06/07 03:00:35;;;;;;;24.38;12.82;;;12.50;99.90;;;;;;5029524;28;20032;-73
2022/06/07 03:03:01;;;;;;;25.92;12.23;;;12.40;99.90;;;;;;5032133;28;20033;-72
2022/06/07 03:05:27;;;;;;;26.67;14.23;;;12.40;99.90;;;;;;5030312;28;20086;-70
2022/06/07 03:07:52;;;;;;;28.38;13.32;;;12.40;99.90;;;;;;5032440;28;20127;-70
2022/06/07 03:10:18;;;;;;;28.50;13.93;;;12.40;99.90;;;;;;5043837;28;20057;-71
2022/06/07 03:12:44;;;;;;;25.10;13.40;;;12.40;99.90;;;;;;5031935;28;20514;-75
2022/06/07 03:15:11;;;;;;;28.10;13.68;;;12.50;99.90;;;;;;5032340;28;20119;-74
2022/06/07 03:17:37;;;;;;;30.25;13.55;;;12.60;99.90;;;;;;5056789;28;20053;-74
2022/06/07 03:20:08;;;;;;;25.70;12.90;;;12.50;99.90;;;;;;5062166;28;20486;-76
2022/06/07 03:22:35;;;;;;;25.60;13.00;;;12.50;99.90;;;;;;5053072;28;20063;-72
2022/06/07 03:25:05;;;;;;;26.13;14.23;;;12.40;99.90;;;;;;5033120;28;20072;-68
2022/06/07 03:27:31;;;;;;;29.92;13.00;;;12.50;99.90;;;;;;5029289;28;20430;-75
2022/06/07 03:29:57;;;;;;;25.30;13.57;;;12.40;99.90;;;;;;5034690;28;20132;-75
2022/06/07 03:32:22;;;;;;;25.33;13.63;;;12.50;99.90;;;;;;5034099;28;20127;-70
2022/06/07 03:34:48;;;;;;;27.05;14.18;;;12.40;99.90;;;;;;5053752;28;20045;-71
2022/06/07 03:37:13;;;;;;;28.08;14.05;;;12.50;99.90;;;;;;5032673;28;20535;-70
2022/06/07 03:39:39;;;;;;;30.02;13.68;;;12.40;99.90;;;;;;5036173;28;20032;-72
2022/06/07 03:42:05;;;;;;;27.05;14.60;;;12.40;99.90;;;;;;5038652;28;20132;-77
2022/06/07 03:44:30;;;;;;;27.88;14.13;;;12.40;99.90;;;;;;5031783;28;20372;-70
2022/06/07 03:46:56;;;;;;;27.63;14.57;;;12.40;99.90;;;;;;5029775;28;20487;-71
2022/06/07 03:49:22;;;;;;;24.48;13.27;;;12.40;99.90;;;;;;5029516;28;20044;-72
2022/06/07 03:51:48;;;;;;;22.60;13.35;;;12.40;99.90;;;;;;5029130;28;20170;-72
2022/06/07 03:54:15;;;;;;;28.58;14.38;;;12.50;99.90;;;;;;5041011;28;20045;-71
2022/06/07 03:56:40;;;;;;;25.65;14.02;;;12.30;99.90;;;;;;5032452;28;20074;-74
2022/06/07 03:59:06;;;;;;;26.95;13.75;;;12.30;99.90;;;;;;5034972;28;20460;-71
2022/06/07 04:01:32;;;;;;;27.45;14.10;;;12.50;99.90;;;;;;5030841;28;20127;-70
2022/06/07 04:04:04;;;;;;;25.33;13.20;;;12.30;99.90;;;;;;5029029;28;20041;-71
2022/06/07 04:06:33;;;;;;;25.25;13.60;;;12.50;99.90;;;;;;5026071;28;20391;-73
2022/06/07 04:08:59;;;;;;;27.13;13.95;;;12.30;99.90;;;;;;5060588;28;20163;-70
2022/06/07 04:11:26;;;;;;;27.17;13.27;;;12.30;99.90;;;;;;5027372;28;20120;-74
2022/06/07 04:13:54;;;;;;;24.25;13.60;;;12.30;99.90;;;;;;5027589;28;20047;-70
2022/06/07 04:16:22;;;;;;;24.10;13.80;;;12.40;99.90;;;;;;5031141;28;20072;-72
2022/06/07 04:18:49;;;;;;;27.27;13.88;;;12.40;99.90;;;;;;5059022;28;20141;-75
2022/06/07 04:21:15;;;;;;;24.88;13.15;;;12.40;99.90;;;;;;5038844;28;20045;-76
2022/06/07 04:23:41;;;;;;;27.58;13.43;;;12.30;99.90;;;;;;5029634;28;20032;-72
2022/06/07 04:26:16;;;;;;;24.77;13.55;;;12.50;99.90;;;;;;5030146;28;20129;-74
2022/06/07 04:28:42;;;;;;;24.80;12.85;;;12.50;99.90;;;;;;5033672;28;20487;-74
2022/06/07 04:31:13;;;;;;;25.05;13.82;;;12.50;99.90;;;;;;5036774;28;20520;-74
2022/06/07 04:33:39;;;;;;;26.98;13.27;;;12.40;99.90;;;;;;5024756;28;20083;-74
2022/06/07 04:36:18;;;;;;;27.60;13.30;;;12.40;99.90;;;;;;5028159;28;20033;-71
2022/06/07 04:38:46;;;;;;;27.30;13.18;;;12.40;99.90;;;;;;5030642;28;20045;-73
2022/06/07 04:41:14;;;;;;;24.48;13.93;;;12.50;99.90;;;;;;5061025;28;20495;-72
2022/06/07 04:43:40;;;;;;;31.90;15.38;;;12.60;99.90;;;;;;5034363;28;20479;-77
2022/06/07 04:46:11;;;;;;;24.88;14.65;;;12.50;99.90;;;;;;5061840;28;20029;-74
2022/06/07 04:48:41;;;;;;;26.92;14.32;;;12.50;99.90;;;;;;5031876;28;20032;-76
2022/06/07 04:51:24;;;;;;;25.15;14.18;;;12.50;99.90;;;;;;5048164;28;20422;-72
2022/06/07 04:53:52;;;;;;;28.92;14.75;;;12.60;99.90;;;;;;5029308;28;20468;-75
2022/06/07 04:56:21;;;;;;;28.15;14.52;;;12.70;99.90;;;;;;5063443;28;20040;-75
2022/06/07 04:58:47;;;;;;;29.10;14.95;;;12.70;99.90;;;;;;5022151;28;20049;-70
2022/06/07 05:01:41;;;;;;;28.85;14.88;;;12.60;99.90;;;;;;5039994;28;20047;-72
2022/06/07 05:04:07;;;;;;;27.00;14.38;;;12.70;99.90;;;;;;5035748;28;20048;-73
2022/06/07 05:06:36;;;;;;;26.67;15.20;;;12.70;99.90;;;;;;5048013;28;20025;-73
2022/06/07 05:09:05;;;;;;;30.25;15.25;;;12.70;99.90;;;;;;5046513;28;20029;-73
2022/06/07 05:11:31;;;;;;;28.58;15.27;;;12.70;99.90;;;;;;5014962;28;20528;-75
2022/06/07 05:13:59;;;;;;;26.35;14.60;;;12.80;99.90;;;;;;5029129;28;20235;-70
2022/06/07 05:16:26;;;;;;;26.80;14.95;;;12.80;99.90;;;;;;5057519;28;20111;-73
2022/06/07 05:18:53;;;;;;;32.60;16.55;;;12.80;99.90;;;;;;5042297;28;20064;-69
2022/06/07 05:21:20;;;;;;;26.63;14.93;;;12.80;99.90;;;;;;5032032;28;20430;-71
2022/06/07 05:23:46;;;;;;;29.77;15.02;;;12.80;99.90;;;;;;5029974;28;20040;-75
2022/06/07 05:26:29;;;;;;;34.38;16.25;;;12.80;99.90;;;;;;5033017;28;20106;-68
2022/06/07 05:28:55;;;;;;;25.05;15.05;;;12.80;99.90;;;;;;5026644;28;20029;-73
2022/06/07 05:31:21;;;;;;;30.13;16.33;;;12.80;99.90;;;;;;5027366;28;20140;-70
2022/06/07 05:33:46;;;;;;;33.05;16.88;;;12.70;99.90;;;;;;5027437;28;20514;-77
2022/06/07 05:36:13;;;;;;;30.73;15.98;;;12.70;99.90;;;;;;5048671;28;20029;-77
2022/06/07 05:38:39;;;;;;;29.92;16.05;;;12.80;99.90;;;;;;5035168;28;20116;-67
2022/06/07 05:41:05;;;;;;;26.58;16.80;;;12.90;99.90;;;;;;5026447;28;20116;-71
2022/06/07 05:43:30;;;;;;;30.40;16.65;;;12.80;99.90;;;;;;5062906;28;20386;-69
2022/06/07 05:45:57;;;;;;;28.05;16.65;;;12.80;99.90;;;;;;5033384;28;20043;-68
2022/06/07 05:48:23;;;;;;;32.90;17.08;;;12.80;99.90;;;;;;5027129;28;20388;-74
2022/06/07 05:50:52;;;;;;;30.77;18.02;;;12.70;99.90;;;;;;5026983;28;20422;-73
2022/06/07 05:53:19;;;;;;;33.13;18.58;;;12.70;99.90;;;;;;5027116;28;20135;-73
2022/06/07 05:55:45;;;;;;;32.17;16.95;;;12.70;99.90;;;;;;5024683;28;20045;-68
2022/06/07 05:58:11;;;;;;;29.33;16.45;;;12.80;99.90;;;;;;5011935;28;20414;-67
2022/06/07 06:00:38;;;;;;;30.73;16.85;;;12.70;99.90;;;;;;5029573;28;20149;-69
2022/06/07 06:03:05;;;;;;;34.50;17.27;;;12.80;99.90;;;;;;5022772;28;20080;-70
2022/06/07 06:05:32;;;;;;;32.08;16.70;;;12.80;99.90;;;;;;5025310;28;20040;-73
2022/06/07 06:10:41;;;;;;;33.25;18.73;;;12.70;99.90;;;;;;5028357;28;20043;-69
2022/06/07 06:13:07;;;;;;;32.90;17.05;;;12.70;99.90;;;;;;5066974;28;20383;-72
2022/06/07 06:15:33;;;;;;;32.08;17.52;;;12.80;99.90;;;;;;5066592;28;20056;-71
2022/06/07 06:18:02;;;;;;;31.00;17.95;;;12.80;99.90;;;;;;5065925;28;20052;-68
2022/06/07 06:20:27;;;;;;;34.60;17.63;;;12.80;99.90;;;;;;5033051;28;20127;-70
2022/06/07 06:22:53;;;;;;;32.70;18.20;;;12.70;99.90;;;;;;5032044;28;20182;-69
2022/06/07 06:25:18;;;;;;;27.98;17.08;;;12.70;99.90;;;;;;5070229;28;20041;-68
2022/06/07 06:27:44;;;;;;;34.92;18.27;;;12.70;99.90;;;;;;5068189;28;20052;-71
2022/06/07 06:30:11;;;;;;;31.30;17.80;;;12.70;99.90;;;;;;5037108;28;20041;-68
2022/06/07 06:32:36;;;;;;;32.25;17.73;;;12.70;99.90;;;;;;5069089;28;20076;-74
2022/06/07 06:35:03;;;;;;;34.53;17.58;;;12.70;99.90;;;;;;5064030;28;20472;-72
2022/06/07 06:37:29;;;;;;;27.27;17.25;;;12.70;99.90;;;;;;5036356;28;20041;-67
2022/06/07 06:39:55;;;;;;;32.42;16.35;;;12.60;99.90;;;;;;5018774;28;20045;-72
2022/06/07 06:42:20;;;;;;;29.20;15.77;;;12.50;99.90;;;;;;5050049;28;20049;-73
2022/06/07 06:44:46;;;;;;;27.15;15.55;;;12.70;99.90;;;;;;5035413;28;20124;-75
2022/06/07 06:47:13;;;;;;;26.27;15.48;;;12.70;99.90;;;;;;5036093;28;20446;-70
2022/06/07 06:49:41;;;;;;;26.40;15.27;;;12.70;99.90;;;;;;5029365;28;20046;-71
2022/06/07 06:52:07;;;;;;;23.73;14.48;;;12.70;99.90;;;;;;5027328;28;20451;-71
2022/06/07 06:54:34;;;;;;;24.85;14.18;;;12.80;99.90;;;;;;5059624;28;20068;-73
2022/06/07 06:57:00;;;;;;;24.92;14.15;;;12.80;99.90;;;;;;5026246;28;20052;-73
2022/06/07 06:59:26;;;;;;;25.98;13.50;;;12.90;99.90;;;;;;5031924;28;20044;-72
2022/06/07 07:01:51;;;;;;;24.52;14.15;;;12.90;99.90;;;;;;5062687;28;20411;-72
2022/06/07 07:04:19;;;;;;;28.85;14.10;;;13.00;99.90;;;;;;5051851;28;20424;-67
2022/06/07 07:06:46;;;;;;;25.35;13.05;;;13.00;99.90;;;;;;5033284;28;20048;-69
2022/06/07 07:09:12;;;;;;;23.55;13.38;;;12.90;99.90;;;;;;5021852;28;20094;-70
2022/06/07 07:11:42;;;;;;;23.98;13.43;;;13.00;99.90;;;;;;5029748;28;20033;-71
2022/06/07 07:14:09;;;;;;;23.27;12.85;;;13.00;99.90;;;;;;5051568;28;20033;-69
2022/06/07 07:16:38;;;;;;;20.58;11.13;;;13.00;99.90;;;;;;5035165;28;20045;-68
2022/06/07 07:19:04;;;;;;;23.08;11.93;;;13.00;99.90;;;;;;5034213;28;20043;-72
2022/06/07 07:21:36;;;;;;;26.48;12.85;;;12.90;99.90;;;;;;5034814;28;20056;-70
2022/06/07 07:24:08;;;;;;;21.70;12.48;;;13.00;99.90;;;;;;5035036;28;20032;-69
2022/06/07 07:26:36;;;;;;;17.70;10.60;;;12.90;99.90;;;;;;5030774;28;20120;-74
2022/06/07 07:29:03;;;;;;;20.60;10.20;;;12.90;99.90;;;;;;5017528;28;20039;-72
2022/06/07 07:31:32;;;;;;;21.02;10.35;;;12.90;99.90;;;;;;5029705;28;20271;-70
2022/06/07 07:34:00;;;;;;;15.40;9.57;;;12.80;99.90;;;;;;5034893;28;20159;-69
2022/06/07 07:36:26;;;;;;;13.90;8.15;;;12.90;99.90;;;;;;5034677;28;20033;-71
2022/06/07 07:38:52;;;;;;;22.90;8.65;;;12.90;99.90;;;;;;5033994;28;20037;-70
2022/06/07 07:41:21;;;;;;;15.18;8.57;;;12.90;99.90;;;;;;5032500;28;20483;-74
2022/06/07 07:43:48;;;;;;;14.88;8.48;;;12.90;99.90;;;;;;5059019;28;20053;-73
2022/06/07 07:46:14;;;;;;;17.65;8.65;;;12.90;99.90;;;;;;5053626;28;20039;-73
2022/06/07 07:48:40;;;;;;;17.70;8.27;;;12.90;99.90;;;;;;5033189;28;20033;-71
2022/06/07 07:51:08;;;;;;;22.20;8.80;;;13.00;99.90;;;;;;5033917;28;20029;-70
2022/06/07 07:53:34;;;;;;;19.23;9.10;;;13.00;99.90;;;;;;5033799;28;20047;-68
2022/06/07 07:56:00;;;;;;;18.15;8.23;;;13.00;99.90;;;;;;5034964;28;20112;-68
2022/06/07 07:58:26;;;;;;;17.30;8.77;;;13.00;99.90;;;;;;5034123;28;20090;-71
2022/06/07 08:00:51;;;;;;;19.95;10.13;;;13.10;99.90;;;;;;5034561;28;20530;-69
2022/06/07 08:03:19;;;;;;;19.73;11.50;;;13.10;99.90;;;;;;5034210;28;20123;-73
2022/06/07 08:05:45;;;;;;;19.60;11.70;;;13.10;99.90;;;;;;5032145;28;20052;-69
2022/06/07 08:08:11;;;;;;;23.17;11.63;;;13.00;99.90;;;;;;5047412;28;20036;-71
2022/06/07 08:10:38;;;;;;;24.02;12.00;;;13.00;99.90;;;;;;5058833;28;20451;-70
2022/06/07 08:13:05;;;;;;;20.88;11.65;;;12.90;99.90;;;;;;5050559;28;20037;-67
2022/06/07 08:15:33;;;;;;;31.02;13.05;;;13.00;99.90;;;;;;5033923;28;20036;-70
2022/06/07 08:18:02;;;;;;;24.00;12.68;;;13.00;99.90;;;;;;5030896;28;20058;-70
2022/06/07 08:20:29;;;;;;;22.02;13.18;;;13.00;99.90;;;;;;5032854;28;20045;-71
2022/06/07 08:22:55;;;;;;;22.42;13.57;;;13.00;99.90;;;;;;5032918;28;20045;-73
2022/06/07 08:25:21;;;;;;;22.63;12.40;;;13.00;99.90;;;;;;5023069;28;20056;-69
2022/06/07 08:27:46;;;;;;;21.90;12.65;;;13.00;99.90;;;;;;5042539;28;20048;-69
2022/06/07 08:30:13;;;;;;;20.48;11.93;;;13.00;99.90;;;;;;5031090;28;20033;-73
2022/06/07 08:32:39;;;;;;;21.33;10.40;;;13.10;99.90;;;;;;5049644;28;20044;-70
2022/06/07 08:37:50;;;;;;;17.92;10.20;;;13.20;99.90;;;;;;5062777;28;20124;-72
2022/06/07 08:40:32;;;;;;;22.15;10.02;;;13.10;99.90;;;;;;5043322;28;20124;-67
2022/06/07 08:43:00;;;;;;;22.63;11.73;;;13.20;99.90;;;;;;5022428;28;20037;-71
2022/06/07 08:45:30;;;;;;;18.73;10.68;;;13.30;99.90;;;;;;5042570;28;20041;-73
2022/06/07 08:47:57;;;;;;;19.75;10.95;;;13.30;99.90;;;;;;5056200;28;20041;-70
2022/06/07 08:50:27;;;;;;;26.17;11.65;;;13.40;99.90;;;;;;5037481;28;20040;-72
2022/06/07 08:53:08;;;;;;;20.95;10.70;;;13.50;99.90;;;;;;5042406;28;20041;-69
2022/06/07 08:55:45;;;;;;;21.77;10.82;;;13.50;99.90;;;;;;5033540;28;20059;-74
2022/06/07 08:58:27;;;;;;;18.05;10.65;;;13.50;99.90;;;;;;5032316;28;20037;-73
2022/06/07 09:01:03;;;;;;;18.33;10.27;;;13.60;99.90;;;;;;5031497;28;20059;-69
2022/06/07 09:03:55;;;;;;;18.50;10.27;;;13.60;99.90;;;;;;5029963;28;20299;-75
2022/06/07 09:06:29;;;;;;;20.57;10.60;;;13.60;99.90;;;;;;5024792;28;20064;-69
2022/06/07 09:08:58;;;;;;;20.00;10.70;;;13.60;99.90;;;;;;5031254;28;20041;-69
2022/06/07 09:14:50;;;;;;;19.02;9.60;;;13.60;99.90;;;;;;5033473;28;20068;-68
2022/06/07 09:17:27;;;;;;;16.15;8.90;;;13.70;99.90;;;;;;5033389;28;20041;-71
2022/06/07 09:19:54;;;;;;;17.00;9.40;;;13.60;99.90;;;;;;5034708;28;20087;-74
2022/06/07 09:22:40;;;;;;;16.33;8.10;;;13.70;99.90;;;;;;5029857;28;20048;-72
2022/06/07 09:25:23;;;;;;;14.02;7.75;;;13.60;99.90;;;;;;5013493;28;20045;-71
2022/06/07 09:27:49;;;;;;;21.92;8.95;;;13.70;99.90;;;;;;5046595;28;20392;-70
2022/06/07 09:30:23;;;;;;;14.68;6.70;;;13.80;99.90;;;;;;5046019;28;20038;-72
2022/06/07 09:32:49;;;;;;;19.00;7.28;;;13.70;99.90;;;;;;5046492;28;20041;-72
2022/06/07 09:35:37;;;;;;;15.02;6.97;;;13.70;99.90;;;;;;5044380;28;20375;-72
2022/06/07 09:38:13;;;;;;;12.77;7.18;;;13.70;99.90;;;;;;5053134;28;20124;-71
2022/06/07 09:40:54;;;;;;;14.32;6.72;;;13.70;99.90;;;;;;5030048;28;20110;-69
2022/06/07 09:43:26;;;;;;;14.60;6.30;;;13.60;99.90;;;;;;5046075;28;20045;-72
2022/06/07 09:45:56;;;;;;;13.75;6.90;;;13.50;99.90;;;;;;5047119;28;20037;-72
2022/06/07 09:48:35;;;;;;;14.85;6.82;;;13.50;99.90;;;;;;5032392;28;20098;-71
2022/06/07 09:51:15;;;;;;;13.90;6.70;;;13.50;99.90;;;;;;5065135;28;20475;-72
2022/06/07 09:53:44;;;;;;;13.73;6.28;;;13.50;99.90;;;;;;5023741;28;20047;-71
2022/06/07 09:56:39;;;;;;;12.80;6.63;;;13.40;99.90;;;;;;5015770;28;20069;-74
2022/06/07 09:59:25;;;;;;;18.35;7.20;;;13.40;99.90;;;;;;5025684;28;20079;-75
2022/06/07 10:01:56;;;;;;;17.73;6.50;;;13.40;99.90;;;;;;5036307;28;20056;-72
2022/06/07 10:04:41;;;;;;;12.80;6.18;;;13.40;99.90;;;;;;5034322;28;20402;-71
2022/06/07 10:07:20;;;;;;;14.88;5.93;;;13.30;99.90;;;;;;5036757;28;20084;-71
2022/06/07 10:09:57;;;;;;;12.82;6.18;;;13.30;99.90;;;;;;5035778;28;20435;-71
2022/06/07 10:12:34;;;;;;;15.38;6.88;;;13.40;99.90;;;;;;5035429;28;20557;-71
2022/06/07 10:15:30;;;;;;;20.85;6.80;;;13.40;99.90;;;;;;5036622;28;20049;-70
2022/06/07 10:18:24;;;;;;;14.25;7.07;;;13.50;99.90;;;;;;5029678;28;22571;-70
2022/06/07 10:20:53;;;;;;;17.27;6.88;;;13.50;99.90;;;;;;5018854;28;20406;-72
2022/06/07 10:23:37;;;;;;;11.57;6.57;;;13.60;99.90;;;;;;5036281;28;20045;-73
2022/06/07 10:26:32;;;;;;;12.73;6.40;;;13.60;99.90;;;;;;5067863;28;20048;-68
2022/06/07 10:29:07;;;;;;;15.65;7.10;;;13.60;99.90;;;;;;5033507;28;20037;-72
2022/06/07 10:31:51;;;;;;;14.30;6.50;;;13.60;99.90;;;;;;5021999;28;20483;-68
2022/06/07 10:34:37;;;;;;;12.23;6.40;;;13.60;99.90;;;;;;5031464;28;20033;-73
2022/06/07 10:37:20;;;;;;;19.58;6.80;;;13.60;99.90;;;;;;5036046;28;20045;-69
2022/06/07 10:40:06;;;;;;;14.05;6.63;;;13.60;99.90;;;;;;5034162;28;20051;-73
2022/06/07 10:42:49;;;;;;;15.48;6.85;;;13.60;99.90;;;;;;5049222;28;20401;-72
2022/06/07 10:45:26;;;;;;;19.35;7.45;;;13.50;99.90;;;;;;5032804;28;20411;-70
2022/06/07 10:48:32;;;;;;;13.52;7.13;;;13.50;99.90;;;;;;5036121;28;20043;-69
2022/06/07 10:54:05;;;;;;;16.75;6.90;;;13.50;99.90;;;;;;5029975;28;20110;-70
2022/06/07 10:56:39;;;;;;;13.20;6.93;;;13.60;99.90;;;;;;5050809;28;20099;-70
2022/06/07 10:59:17;;;;;;;17.70;7.50;;;13.60;99.90;;;;;;5034717;28;20040;-71
2022/06/07 11:02:03;;;;;;;16.42;7.22;;;13.60;99.90;;;;;;4999055;28;20219;-68
2022/06/07 11:10:46;;;;;;;14.43;7.28;;;13.90;99.90;;;;;;5021480;28;20101;-69
2022/06/07 11:13:35;;;;;;;18.40;7.32;;;13.90;99.90;;;;;;5042881;28;20433;-69
2022/06/07 11:16:10;;;;;;;13.98;7.22;;;13.80;99.90;;;;;;5045449;28;20213;-68
2022/06/07 11:18:36;;;;;;;18.05;7.93;;;13.80;99.90;;;;;;5034361;28;20403;-69
2022/06/07 11:21:02;;;;;;;14.35;8.27;;;13.90;99.90;;;;;;5032419;28;20056;-67
2022/06/07 11:23:43;;;;;;;17.15;7.07;;;13.90;99.90;;;;;;5023181;28;20040;-71
2022/06/07 11:26:15;;;;;;;22.45;8.35;;;14.10;99.90;;;;;;5068276;28;20075;-68
2022/06/07 11:28:41;;;;;;;19.05;7.75;;;14.10;99.90;;;;;;5034062;28;20029;-69
2022/06/07 11:31:21;;;;;;;16.02;7.72;;;14.10;99.90;;;;;;5032974;28;20067;-67
2022/06/07 11:33:47;;;;;;;16.45;8.05;;;14.20;99.90;;;;;;5060068;28;20045;-69
2022/06/07 11:36:12;;;;;;;16.75;7.70;;;14.30;99.90;;;;;;5046253;28;20041;-71
2022/06/07 11:38:56;;;;;;;16.77;8.20;;;14.40;99.90;;;;;;5053245;28;20167;-70
2022/06/07 11:41:37;;;;;;;16.77;7.82;;;14.50;99.90;;;;;;5053800;28;20044;-68
2022/06/07 11:44:10;;;;;;;17.52;8.43;;;14.50;99.90;;;;;;5055000;28;20075;-67
2022/06/07 11:46:35;;;;;;;20.80;8.38;;;14.60;99.90;;;;;;5041598;28;20114;-68
2022/06/07 11:49:23;;;;;;;15.82;7.90;;;14.70;99.90;;;;;;5016631;28;20484;-71
2022/06/07 11:52:11;;;;;;;18.08;8.20;;;14.60;99.90;;;;;;5034919;28;20155;-69
2022/06/07 11:54:46;;;;;;;15.55;7.45;;;14.60;99.90;;;;;;5011490;28;20049;-68
2022/06/07 11:57:49;;;;;;;19.10;8.45;;;14.50;99.90;;;;;;5067710;28;20055;-68
2022/06/07 12:00:17;;;;;;;14.85;8.60;;;14.60;99.90;;;;;;5034080;28;20041;-66
2022/06/07 12:03:01;;;;;;;16.13;7.65;;;14.80;99.90;;;;;;5066699;28;20064;-70
2022/06/07 12:05:29;;;;;;;17.50;8.95;;;15.00;99.90;;;;;;5018327;28;20037;-71
2022/06/07 12:08:00;;;;;;;20.10;8.40;;;14.90;99.90;;;;;;5034295;28;20045;-68
2022/06/07 12:10:36;;;;;;;18.17;8.25;;;14.80;99.90;;;;;;5035938;28;20036;-70
2022/06/07 12:13:49;;;;;;;15.48;7.35;;;14.60;99.90;;;;;;5043566;28;20040;-71
2022/06/07 12:16:12;;;;;;;16.33;8.30;;;14.50;99.90;;;;;;5035342;28;20133;-68
2022/06/07 12:18:38;;;;;;;20.08;9.10;;;14.50;99.90;;;;;;5026319;28;20051;-71
2022/06/07 12:21:15;;;;;;;16.92;9.95;;;14.50;99.90;;;;;;5028612;28;20079;-72
2022/06/07 12:23:47;;;;;;;15.05;8.60;;;14.60;99.90;;;;;;5034465;28;20041;-72
2022/06/07 12:26:24;;;;;;;14.02;8.25;;;15.00;99.90;;;;;;5044488;28;20025;-71
2022/06/07 12:28:53;;;;;;;17.23;8.40;;;15.20;99.90;;;;;;5033517;28;20047;-70
2022/06/07 12:31:26;;;;;;;19.17;7.47;;;15.20;99.90;;;;;;5039818;28;20103;-75
2022/06/07 12:33:55;;;;;;;12.48;7.53;;;15.30;99.90;;;;;;5057869;28;20056;-68
2022/06/07 12:36:25;;;;;;;14.90;8.10;;;15.40;99.90;;;;;;5018312;28;20063;-73
2022/06/07 12:38:52;;;;;;;15.55;8.05;;;15.30;99.90;;;;;;5017802;28;20090;-71
2022/06/07 12:41:22;;;;;;;18.30;7.75;;;15.40;99.90;;;;;;5056980;28;21256;-75
2022/06/07 12:43:51;;;;;;;15.30;7.88;;;15.60;99.90;;;;;;5027443;28;20506;-68
2022/06/07 12:46:21;;;;;;;15.52;8.13;;;15.60;99.90;;;;;;5042219;28;20047;-69
2022/06/07 12:48:48;;;;;;;15.70;8.82;;;15.60;99.90;;;;;;5039123;28;20098;-72
2022/06/07 12:51:36;;;;;;;18.88;7.82;;;15.80;99.90;;;;;;5012128;28;20590;-69
2022/06/07 12:54:14;;;;;;;18.08;9.35;;;16.00;99.90;;;;;;5029499;28;20178;-68
2022/06/07 12:56:42;;;;;;;19.38;7.80;;;16.20;99.90;;;;;;5037784;28;20126;-68
2022/06/07 12:59:21;;;;;;;18.02;7.95;;;16.40;99.90;;;;;;5049637;28;20167;-73
2022/06/07 13:01:49;;;;;;;15.57;7.75;;;16.20;99.90;;;;;;5045194;28;20036;-72
2022/06/07 13:04:35;;;;;;;18.20;8.95;;;16.10;99.90;;;;;;5029588;28;20376;-74
2022/06/07 13:07:24;;;;;;;18.70;8.40;;;16.30;99.90;;;;;;5023526;28;20041;-72
2022/06/07 13:09:58;;;;;;;15.85;8.35;;;16.30;99.90;;;;;;5026942;28;20159;-74
2022/06/07 13:12:32;;;;;;;18.88;7.63;;;16.30;99.90;;;;;;5032718;28;20033;-74